Time;durP1;ratioP1;P1;durP2;ratioP2;P2;SDS_P1;SDS_P2;PMS_P1;PMS_P2;Temp;Humidity;BMP_temperature;BMP_pressure;BME280_temperature;BME280_humidity;BME280_pressure;Samples;Min_cycle;Max_cycle;Signal;HPM_P1;HPM_P2
2022/05/25 00:02:05;;;;;;;25.90;24.40;;;16.00;73.60;;;;;;5098797;28;20454;-72
2022/05/25 00:04:32;;;;;;;25.20;23.90;;;16.10;73.80;;;;;;5085472;28;20470;-76
2022/05/25 00:07:00;;;;;;;24.83;23.53;;;16.10;74.00;;;;;;5074880;28;20458;-72
2022/05/25 00:09:27;;;;;;;25.10;23.80;;;16.10;74.30;;;;;;5083682;28;20995;-74
2022/05/25 00:11:54;;;;;;;24.80;23.50;;;16.00;74.60;;;;;;5089208;28;20484;-74
2022/05/25 00:14:22;;;;;;;25.37;23.87;;;16.00;74.80;;;;;;5083244;28;20459;-73
2022/05/25 00:16:49;;;;;;;24.80;23.50;;;16.00;74.70;;;;;;5085105;28;20461;-72
2022/05/25 00:22:00;;;;;;;24.40;23.10;;;16.00;74.70;;;;;;5079439;28;20990;-72
2022/05/25 00:24:28;;;;;;;25.00;23.60;;;16.00;74.70;;;;;;5079288;28;20465;-72
2022/05/25 00:26:55;;;;;;;25.07;23.70;;;16.00;74.90;;;;;;5085941;28;20547;-74
2022/05/25 00:29:23;;;;;;;25.17;23.77;;;16.00;74.70;;;;;;5088177;28;20536;-72
2022/05/25 00:31:50;;;;;;;25.20;23.60;;;16.00;74.70;;;;;;5086125;28;20876;-72
2022/05/25 00:34:17;;;;;;;24.97;23.67;;;16.00;74.40;;;;;;5078665;28;20760;-72
2022/05/25 00:36:44;;;;;;;25.87;24.57;;;16.00;74.50;;;;;;5089732;28;20460;-72
2022/05/25 00:39:11;;;;;;;25.47;23.97;;;16.00;74.70;;;;;;5078907;28;20458;-73
2022/05/25 00:41:38;;;;;;;24.77;23.47;;;16.00;74.60;;;;;;5095451;28;20460;-74
2022/05/25 00:44:08;;;;;;;24.97;23.57;;;16.00;74.50;;;;;;5071701;28;20454;-72
2022/05/25 00:46:38;;;;;;;25.70;24.40;;;15.90;74.60;;;;;;5077121;28;20478;-72
2022/05/25 00:49:11;;;;;;;25.40;24.10;;;16.00;74.20;;;;;;5082655;28;20813;-72
2022/05/25 00:51:42;;;;;;;24.73;23.43;;;16.00;74.10;;;;;;5092823;28;21045;-73
2022/05/25 00:54:13;;;;;;;25.20;23.80;;;16.00;73.80;;;;;;5079733;28;20546;-73
2022/05/25 00:56:43;;;;;;;25.30;23.80;;;16.00;73.50;;;;;;5081803;28;20546;-72
2022/05/25 00:59:14;;;;;;;24.17;22.87;;;16.00;73.10;;;;;;5091040;28;20457;-73
2022/05/25 01:01:43;;;;;;;24.63;23.20;;;15.90;72.90;;;;;;5077775;28;20449;-73
2022/05/25 01:04:11;;;;;;;25.00;23.60;;;15.90;73.00;;;;;;5081097;28;20560;-73
2022/05/25 01:07:00;;;;;;;25.17;23.60;;;15.90;73.10;;;;;;5076324;28;20461;-72
2022/05/25 01:09:37;;;;;;;24.70;23.40;;;15.90;72.80;;;;;;5082096;28;20484;-70
2022/05/25 01:12:22;;;;;;;25.60;24.10;;;15.90;72.60;;;;;;5073239;28;20474;-70
2022/05/25 01:15:02;;;;;;;25.50;24.13;;;15.90;72.50;;;;;;5085598;28;20484;-69
2022/05/25 01:17:40;;;;;;;25.27;23.80;;;15.90;72.00;;;;;;5085748;28;20460;-70
2022/05/25 01:20:21;;;;;;;25.80;24.10;;;15.90;71.80;;;;;;5091696;28;20799;-69
2022/05/25 01:23:18;;;;;;;25.00;23.70;;;15.90;71.70;;;;;;5088495;28;20464;-70
2022/05/25 01:26:21;;;;;;;25.40;23.60;;;15.90;71.70;;;;;;5059152;28;20502;-70
2022/05/25 01:29:15;;;;;;;24.50;23.20;;;15.90;71.50;;;;;;5080002;28;20983;-70
2022/05/25 01:31:50;;;;;;;24.40;23.10;;;15.80;71.50;;;;;;5076201;28;20481;-70
2022/05/25 01:34:26;;;;;;;24.60;23.30;;;15.80;71.40;;;;;;5083958;28;20540;-71
2022/05/25 01:36:59;;;;;;;24.57;23.27;;;15.80;71.40;;;;;;5069617;28;20489;-70
2022/05/25 01:39:32;;;;;;;24.43;23.13;;;15.80;71.50;;;;;;5095325;28;20539;-70
2022/05/25 01:42:06;;;;;;;24.10;22.80;;;15.80;71.40;;;;;;5089168;28;20537;-70
2022/05/25 01:44:39;;;;;;;24.17;22.87;;;15.80;71.50;;;;;;5078297;28;20556;-69
2022/05/25 01:47:10;;;;;;;24.47;23.17;;;15.80;71.60;;;;;;5082004;28;20460;-70
2022/05/25 01:49:50;;;;;;;24.50;23.20;;;15.70;71.60;;;;;;5099111;28;20488;-70
2022/05/25 01:52:23;;;;;;;24.97;23.67;;;15.70;71.60;;;;;;5089914;28;20519;-69
2022/05/25 01:54:53;;;;;;;25.70;24.40;;;15.70;71.80;;;;;;5090990;28;20484;-70
2022/05/25 01:57:24;;;;;;;24.47;23.17;;;15.70;72.20;;;;;;5072913;28;20893;-70
2022/05/25 01:59:51;;;;;;;24.03;22.80;;;15.70;72.70;;;;;;5083125;28;20455;-70
2022/05/25 02:05:10;;;;;;;24.87;23.27;;;15.60;72.60;;;;;;5090660;28;20480;-70
2022/05/25 02:08:00;;;;;;;24.33;23.03;;;15.70;73.00;;;;;;5090541;28;20795;-70
2022/05/25 02:10:44;;;;;;;24.47;23.17;;;15.70;73.20;;;;;;5084543;28;20485;-70
2022/05/25 02:13:30;;;;;;;24.97;23.60;;;15.60;73.70;;;;;;5085326;28;20816;-70
2022/05/25 02:16:12;;;;;;;24.10;22.80;;;15.50;73.50;;;;;;5076291;28;20982;-70
2022/05/25 02:18:43;;;;;;;24.60;23.20;;;15.50;73.80;;;;;;5085292;28;20442;-69
2022/05/25 02:21:16;;;;;;;25.13;23.83;;;15.40;73.80;;;;;;5086434;28;20456;-70
2022/05/25 02:23:51;;;;;;;26.00;24.60;;;15.40;73.60;;;;;;5089504;28;20528;-70
2022/05/25 02:26:22;;;;;;;26.10;24.60;;;15.40;73.50;;;;;;5086279;28;20464;-70
2022/05/25 02:28:56;;;;;;;24.90;23.60;;;15.40;73.50;;;;;;5090146;28;20540;-71
2022/05/25 02:31:27;;;;;;;25.23;23.83;;;15.40;73.50;;;;;;5079277;28;20500;-70
2022/05/25 02:33:58;;;;;;;25.13;23.63;;;15.30;73.20;;;;;;5091415;28;20467;-69
2022/05/25 02:36:26;;;;;;;26.03;24.00;;;15.30;73.20;;;;;;5085132;28;20501;-70
2022/05/25 02:38:53;;;;;;;25.30;24.00;;;15.30;73.20;;;;;;5080318;28;20457;-71
2022/05/25 02:41:29;;;;;;;26.10;24.70;;;15.30;73.00;;;;;;5098690;28;20589;-71
2022/05/25 02:43:56;;;;;;;25.70;24.30;;;15.30;72.30;;;;;;5083770;28;20450;-71
2022/05/25 02:46:24;;;;;;;25.20;23.90;;;15.30;72.00;;;;;;5079458;28;20547;-71
2022/05/25 02:48:51;;;;;;;26.10;24.50;;;15.30;72.00;;;;;;5090708;28;21080;-70
2022/05/25 02:51:19;;;;;;;25.70;24.40;;;15.30;71.80;;;;;;5098828;28;20508;-74
2022/05/25 02:53:46;;;;;;;25.03;23.63;;;15.20;72.00;;;;;;5102894;28;20456;-72
2022/05/25 02:56:13;;;;;;;25.77;24.37;;;15.20;71.70;;;;;;5091467;28;20475;-75
2022/05/25 02:58:40;;;;;;;24.50;23.20;;;15.10;71.20;;;;;;5084052;28;20471;-72
2022/05/25 03:01:07;;;;;;;24.90;23.60;;;15.10;71.20;;;;;;5095699;28;20549;-69
2022/05/25 03:03:35;;;;;;;25.20;23.90;;;15.10;71.10;;;;;;5090905;28;20454;-70
2022/05/25 03:06:02;;;;;;;25.90;24.43;;;15.10;71.50;;;;;;5094035;28;20480;-70
2022/05/25 03:08:31;;;;;;;25.60;24.10;;;15.10;71.60;;;;;;5107374;28;20475;-69
2022/05/25 03:10:58;;;;;;;25.40;23.80;;;15.10;72.00;;;;;;5087699;28;20469;-71
2022/05/25 03:13:25;;;;;;;23.83;22.53;;;15.10;72.00;;;;;;5089977;28;20824;-70
2022/05/25 03:15:52;;;;;;;25.97;24.40;;;15.10;71.60;;;;;;5097759;28;20846;-69
2022/05/25 03:18:19;;;;;;;24.50;23.20;;;15.10;71.30;;;;;;5091433;28;20501;-70
2022/05/25 03:20:47;;;;;;;25.23;23.93;;;15.10;70.90;;;;;;5083706;28;20445;-70
2022/05/25 03:23:17;;;;;;;29.20;27.60;;;15.00;70.90;;;;;;5088142;28;20943;-70
2022/05/25 03:25:45;;;;;;;25.67;24.27;;;15.00;70.90;;;;;;5088039;28;20509;-70
2022/05/25 03:28:12;;;;;;;31.43;29.90;;;15.00;71.00;;;;;;5083305;28;20474;-69
2022/05/25 03:30:41;;;;;;;28.90;27.40;;;15.00;71.00;;;;;;5086235;28;20977;-70
2022/05/25 03:33:08;;;;;;;25.97;24.60;;;15.00;71.00;;;;;;5088903;28;20458;-71
2022/05/25 03:35:35;;;;;;;25.80;24.40;;;15.00;70.80;;;;;;5078204;28;20558;-69
2022/05/25 03:38:02;;;;;;;27.77;26.07;;;15.00;70.70;;;;;;5071530;28;20459;-72
2022/05/25 03:40:30;;;;;;;24.87;23.57;;;15.00;70.50;;;;;;5081076;28;20819;-74
2022/05/25 03:42:58;;;;;;;24.67;23.37;;;15.00;70.50;;;;;;5076541;28;20805;-70
2022/05/25 03:45:25;;;;;;;25.30;23.80;;;15.10;70.00;;;;;;5095502;28;21006;-70
2022/05/25 03:47:53;;;;;;;24.67;23.30;;;15.00;70.10;;;;;;5071231;28;20790;-70
2022/05/25 03:50:20;;;;;;;24.73;23.23;;;15.00;70.60;;;;;;5084653;28;20511;-71
2022/05/25 03:52:48;;;;;;;24.83;23.50;;;15.00;70.40;;;;;;5075117;28;20831;-70
2022/05/25 03:55:15;;;;;;;26.60;25.20;;;15.00;70.60;;;;;;5089548;28;20488;-70
2022/05/25 03:57:42;;;;;;;26.37;24.97;;;15.00;70.60;;;;;;5090697;28;21039;-69
2022/05/25 04:00:12;;;;;;;25.63;24.30;;;15.00;70.60;;;;;;5077945;28;20462;-70
2022/05/25 04:02:39;;;;;;;25.17;23.87;;;15.10;70.40;;;;;;5081315;28;20454;-70
2022/05/25 04:05:10;;;;;;;28.50;27.10;;;15.00;70.80;;;;;;5094858;28;20484;-70
2022/05/25 04:07:38;;;;;;;24.13;22.93;;;15.00;70.70;;;;;;5090690;28;20462;-70
2022/05/25 04:10:07;;;;;;;24.50;23.20;;;15.10;70.90;;;;;;5082500;28;20553;-70
2022/05/25 04:12:34;;;;;;;25.17;23.87;;;15.00;70.70;;;;;;5074928;28;20478;-71
2022/05/25 04:15:01;;;;;;;24.83;23.43;;;15.10;70.40;;;;;;5085703;28;20478;-70
2022/05/25 04:17:32;;;;;;;28.97;27.37;;;15.10;70.60;;;;;;5093855;28;20451;-70
2022/05/25 04:19:59;;;;;;;24.30;23.00;;;15.10;70.70;;;;;;5084632;28;20458;-69
2022/05/25 04:22:26;;;;;;;26.37;24.80;;;15.20;70.80;;;;;;5088495;28;20597;-71
2022/05/25 04:24:53;;;;;;;26.30;24.80;;;15.20;71.20;;;;;;5089696;28;20473;-71
2022/05/25 04:27:20;;;;;;;29.80;28.10;;;15.10;71.40;;;;;;5082278;28;20545;-70
2022/05/25 04:29:47;;;;;;;25.10;23.70;;;15.10;71.60;;;;;;5075297;28;20460;-70
2022/05/25 04:32:14;;;;;;;25.90;24.50;;;15.10;72.00;;;;;;5081043;28;20850;-69
2022/05/25 04:34:42;;;;;;;25.37;24.07;;;15.10;72.20;;;;;;5092953;28;20473;-70
2022/05/25 04:39:53;;;;;;;26.40;24.90;;;15.30;72.50;;;;;;5070261;28;20462;-71
2022/05/25 04:42:20;;;;;;;25.50;24.00;;;15.30;72.10;;;;;;5081460;28;20798;-74
2022/05/25 04:44:47;;;;;;;24.20;22.80;;;15.30;72.40;;;;;;5072754;28;20480;-76
2022/05/25 04:47:14;;;;;;;27.30;25.80;;;15.40;72.60;;;;;;5074119;28;20457;-72
2022/05/25 04:49:45;;;;;;;25.90;24.40;;;15.40;72.30;;;;;;5082672;28;20548;-72
2022/05/25 04:52:12;;;;;;;25.70;24.10;;;15.50;72.30;;;;;;5073143;28;20466;-72
2022/05/25 04:54:39;;;;;;;24.90;23.50;;;15.50;72.30;;;;;;5087287;28;20901;-77
2022/05/25 04:57:19;;;;;;;25.37;23.97;;;15.70;71.80;;;;;;5082514;28;20565;-74
2022/05/25 04:59:47;;;;;;;24.70;23.30;;;15.60;71.90;;;;;;5087661;28;20452;-70
2022/05/25 05:02:14;;;;;;;26.00;24.60;;;15.60;72.00;;;;;;5079828;28;20495;-71
2022/05/25 05:04:41;;;;;;;27.80;26.30;;;15.60;71.70;;;;;;5085976;28;20552;-75
2022/05/25 05:07:09;;;;;;;25.90;24.50;;;15.70;71.50;;;;;;5082343;28;20524;-73
2022/05/25 05:09:37;;;;;;;26.83;25.33;;;15.70;71.40;;;;;;5081949;28;20557;-72
2022/05/25 05:12:05;;;;;;;25.73;24.20;;;15.80;71.00;;;;;;5076877;28;20831;-70
2022/05/25 05:14:32;;;;;;;26.80;24.70;;;15.80;70.70;;;;;;5072358;28;20501;-72
2022/05/25 05:17:01;;;;;;;24.80;23.30;;;15.80;70.40;;;;;;5077287;28;21039;-71
2022/05/25 05:19:28;;;;;;;28.43;26.93;;;15.80;69.80;;;;;;5085085;28;20460;-71
2022/05/25 05:21:57;;;;;;;26.23;24.83;;;15.80;70.20;;;;;;5078712;28;20455;-72
2022/05/25 05:24:25;;;;;;;25.07;23.67;;;15.80;70.20;;;;;;5077644;28;20461;-72
2022/05/25 05:26:52;;;;;;;25.10;23.70;;;15.80;70.20;;;;;;5080065;28;20546;-69
2022/05/25 05:29:19;;;;;;;31.67;30.10;;;15.80;70.20;;;;;;5076687;28;20466;-77
2022/05/25 05:31:47;;;;;;;27.77;26.07;;;15.90;70.00;;;;;;5081652;28;20557;-74
2022/05/25 05:34:13;;;;;;;27.17;25.47;;;15.90;70.30;;;;;;5079805;28;20453;-73
2022/05/25 05:36:45;;;;;;;25.70;24.30;;;16.00;69.90;;;;;;5081546;28;20485;-76
2022/05/25 05:39:15;;;;;;;27.53;26.03;;;16.20;69.60;;;;;;5084660;28;20529;-71
2022/05/25 05:41:48;;;;;;;26.40;24.90;;;16.20;69.70;;;;;;5083730;28;20456;-71
2022/05/25 05:44:18;;;;;;;25.80;24.40;;;16.30;69.50;;;;;;5085634;28;20568;-73
2022/05/25 05:46:47;;;;;;;27.20;25.70;;;16.30;68.20;;;;;;5078067;28;20457;-70
2022/05/25 05:49:14;;;;;;;26.40;25.00;;;16.40;68.00;;;;;;5077729;28;20498;-74
2022/05/25 05:51:43;;;;;;;26.30;24.80;;;16.40;67.60;;;;;;5098951;28;20480;-70
2022/05/25 05:54:10;;;;;;;24.47;23.17;;;16.50;67.70;;;;;;5069182;28;20466;-71
2022/05/25 05:56:37;;;;;;;27.03;25.33;;;16.60;68.00;;;;;;5070716;28;20805;-69
2022/05/25 05:59:05;;;;;;;24.90;23.50;;;16.70;68.10;;;;;;5087821;28;20465;-70
2022/05/25 06:01:34;;;;;;;25.33;24.03;;;16.90;66.90;;;;;;5089358;28;20596;-70
2022/05/25 06:04:01;;;;;;;25.87;24.37;;;17.00;66.50;;;;;;5068515;28;20490;-69
2022/05/25 06:06:28;;;;;;;26.53;24.97;;;17.30;65.90;;;;;;5085429;28;20472;-70
2022/05/25 06:08:56;;;;;;;26.00;24.60;;;17.40;65.40;;;;;;5070622;28;20481;-73
2022/05/25 06:11:24;;;;;;;25.83;24.43;;;17.70;64.80;;;;;;5078683;28;20487;-69
2022/05/25 06:13:51;;;;;;;28.43;26.93;;;17.90;64.30;;;;;;5085424;28;20463;-69
2022/05/25 06:21:58;;;;;;;26.60;25.10;;;18.20;61.90;;;;;;5057818;28;20496;-70
2022/05/25 06:24:25;;;;;;;25.70;24.30;;;18.30;62.20;;;;;;5083402;28;20471;-71
2022/05/25 06:26:52;;;;;;;27.50;25.90;;;18.50;61.60;;;;;;5095497;28;20451;-71
2022/05/25 06:29:20;;;;;;;31.37;29.93;;;18.60;60.10;;;;;;5069225;28;20550;-75
2022/05/25 06:31:50;;;;;;;27.27;25.70;;;18.50;59.20;;;;;;5086222;28;20925;-71
2022/05/25 06:34:17;;;;;;;25.03;23.63;;;18.20;59.40;;;;;;5077846;28;20472;-73
2022/05/25 06:36:47;;;;;;;25.43;24.03;;;17.90;60.10;;;;;;5085089;28;20547;-69
2022/05/25 06:39:14;;;;;;;25.70;24.20;;;17.90;60.70;;;;;;5085167;28;20967;-70
2022/05/25 06:41:41;;;;;;;27.70;26.00;;;17.90;60.70;;;;;;5087146;28;20462;-69
2022/05/25 06:44:08;;;;;;;25.40;23.90;;;18.10;60.50;;;;;;5077754;28;20548;-71
2022/05/25 06:46:35;;;;;;;26.10;24.63;;;18.10;60.30;;;;;;5098112;28;20579;-73
2022/05/25 06:49:04;;;;;;;26.93;25.43;;;18.30;60.70;;;;;;5071841;28;20458;-74
2022/05/25 06:51:33;;;;;;;26.33;24.77;;;18.30;60.10;;;;;;5082268;28;20458;-73
2022/05/25 06:54:01;;;;;;;25.47;24.07;;;18.30;59.80;;;;;;5078086;28;20461;-74
2022/05/25 06:56:28;;;;;;;27.50;25.90;;;18.20;60.40;;;;;;5079598;28;20490;-72
2022/05/25 06:58:57;;;;;;;28.50;26.80;;;18.20;61.20;;;;;;5091825;28;20469;-70
2022/05/25 07:01:25;;;;;;;25.30;24.00;;;18.30;60.90;;;;;;5088634;28;21243;-69
2022/05/25 07:03:53;;;;;;;26.67;25.20;;;18.30;61.10;;;;;;5074287;28;20468;-71
2022/05/25 07:06:27;;;;;;;26.20;24.80;;;18.30;61.30;;;;;;5086993;28;20485;-72
2022/05/25 07:08:55;;;;;;;26.43;24.97;;;18.30;62.00;;;;;;5074108;28;20649;-70
2022/05/25 07:11:24;;;;;;;26.77;25.30;;;18.30;62.10;;;;;;5070773;28;21272;-69
2022/05/25 07:13:51;;;;;;;26.43;24.90;;;18.30;62.40;;;;;;5074467;28;20491;-69
2022/05/25 07:16:20;;;;;;;29.33;27.73;;;18.40;61.10;;;;;;5087912;28;21292;-72
2022/05/25 07:18:48;;;;;;;26.20;24.63;;;18.30;60.30;;;;;;5084050;28;20480;-72
2022/05/25 07:21:17;;;;;;;26.47;24.87;;;17.70;61.70;;;;;;5085210;28;20836;-68
2022/05/25 07:23:47;;;;;;;25.60;24.20;;;17.40;62.20;;;;;;5083192;28;21148;-68
2022/05/25 07:26:14;;;;;;;27.40;25.70;;;17.40;62.10;;;;;;5080497;28;21010;-69
2022/05/25 07:28:54;;;;;;;27.93;26.10;;;17.40;62.60;;;;;;5077476;28;20982;-70
2022/05/25 07:31:27;;;;;;;27.20;25.60;;;17.70;62.80;;;;;;5076123;28;20504;-69
2022/05/25 07:34:00;;;;;;;25.10;23.70;;;17.80;61.30;;;;;;5072272;28;20953;-70
2022/05/25 07:36:28;;;;;;;26.00;24.40;;;17.90;60.10;;;;;;5078580;28;21036;-69
2022/05/25 07:39:00;;;;;;;29.20;27.63;;;17.80;60.50;;;;;;5081093;28;20462;-70
2022/05/25 07:41:28;;;;;;;24.20;22.90;;;17.80;60.90;;;;;;5079710;28;20464;-70
2022/05/25 07:43:58;;;;;;;25.20;23.70;;;17.80;61.50;;;;;;5078328;28;20466;-72
2022/05/25 07:46:26;;;;;;;25.50;24.00;;;18.10;60.70;;;;;;5089337;28;20992;-71
2022/05/25 07:48:53;;;;;;;25.70;24.30;;;18.20;60.00;;;;;;5079013;27;21008;-77
2022/05/25 07:51:20;;;;;;;25.70;24.20;;;18.30;59.40;;;;;;5081576;28;20454;-72
2022/05/25 07:53:58;;;;;;;27.00;25.50;;;18.40;59.50;;;;;;5070621;28;20482;-73
2022/05/25 07:56:30;;;;;;;25.50;24.00;;;18.80;58.70;;;;;;5075288;28;20472;-74
2022/05/25 07:58:57;;;;;;;26.47;24.77;;;18.80;58.80;;;;;;5077530;28;20450;-72
2022/05/25 08:06:53;;;;;;;26.30;24.70;;;19.30;58.80;;;;;;5082334;28;20487;-77
2022/05/25 08:09:20;;;;;;;27.43;25.73;;;19.60;58.20;;;;;;5080083;28;20464;-71
2022/05/25 08:11:48;;;;;;;27.37;25.97;;;20.10;56.80;;;;;;5086323;28;20829;-71
2022/05/25 08:14:16;;;;;;;26.00;24.40;;;20.50;55.20;;;;;;5079538;28;20605;-71
2022/05/25 08:16:42;;;;;;;27.23;25.37;;;20.60;53.60;;;;;;5077956;28;20452;-72
2022/05/25 08:19:09;;;;;;;26.43;24.87;;;20.70;53.70;;;;;;5080699;28;20605;-71
2022/05/25 08:21:36;;;;;;;26.10;24.70;;;21.00;53.20;;;;;;5087108;28;20631;-74
2022/05/25 08:24:04;;;;;;;27.90;26.40;;;21.00;52.70;;;;;;5082001;28;20454;-71
2022/05/25 08:26:30;;;;;;;25.60;24.10;;;21.00;53.00;;;;;;5082701;28;20484;-72
2022/05/25 08:28:59;;;;;;;25.87;24.20;;;21.30;53.30;;;;;;5080466;28;20468;-72
2022/05/25 08:31:26;;;;;;;25.10;23.73;;;21.50;53.40;;;;;;5082654;28;20473;-71
2022/05/25 08:33:53;;;;;;;26.50;25.10;;;21.60;52.20;;;;;;5084235;28;20565;-71
2022/05/25 08:36:19;;;;;;;25.13;23.63;;;21.90;51.20;;;;;;5084044;28;20503;-71
2022/05/25 08:38:46;;;;;;;26.20;24.70;;;21.90;50.80;;;;;;5089689;28;20450;-73
2022/05/25 08:41:14;;;;;;;27.20;25.60;;;21.90;50.50;;;;;;5078615;28;20446;-71
2022/05/25 08:43:45;;;;;;;26.17;24.60;;;21.90;50.90;;;;;;5077123;28;20442;-72
2022/05/25 08:46:18;;;;;;;25.73;24.33;;;22.20;50.70;;;;;;5075879;28;20469;-72
2022/05/25 08:48:46;;;;;;;25.40;24.10;;;22.40;50.40;;;;;;5086637;28;20458;-72
2022/05/25 08:51:17;;;;;;;27.90;26.30;;;22.70;48.20;;;;;;5088556;28;20793;-74
2022/05/25 08:53:45;;;;;;;26.63;25.03;;;22.40;47.80;;;;;;5083379;28;20489;-71
2022/05/25 08:56:19;;;;;;;25.43;24.13;;;21.60;49.50;;;;;;5078247;28;20481;-72
2022/05/25 08:58:49;;;;;;;25.20;23.90;;;21.00;50.80;;;;;;5075968;28;20470;-73
2022/05/25 09:01:22;;;;;;;28.40;26.50;;;20.90;51.30;;;;;;5074433;28;20464;-70
2022/05/25 09:04:03;;;;;;;25.97;24.57;;;20.80;52.00;;;;;;5080925;28;20609;-71
2022/05/25 09:06:49;;;;;;;25.87;24.27;;;20.70;51.80;;;;;;5077364;28;20542;-70
2022/05/25 09:09:22;;;;;;;25.40;24.00;;;20.70;52.40;;;;;;5076300;28;20477;-71
2022/05/25 09:11:53;;;;;;;26.90;25.30;;;20.50;52.00;;;;;;5078344;28;20468;-71
2022/05/25 09:14:28;;;;;;;26.20;24.60;;;20.10;52.50;;;;;;5075640;28;20478;-71
2022/05/25 09:16:59;;;;;;;28.30;26.50;;;19.80;53.60;;;;;;5079354;28;20466;-74
2022/05/25 09:19:31;;;;;;;27.50;25.90;;;19.80;53.60;;;;;;5074141;28;20458;-71
2022/05/25 09:22:00;;;;;;;26.40;24.87;;;19.80;53.70;;;;;;5081775;28;20456;-72
2022/05/25 09:24:29;;;;;;;25.63;24.20;;;19.80;53.40;;;;;;5082668;28;20454;-72
2022/05/25 09:26:57;;;;;;;26.00;24.47;;;19.60;52.00;;;;;;5075994;28;20565;-73
2022/05/25 09:29:25;;;;;;;24.90;23.50;;;19.30;53.00;;;;;;5074046;28;20519;-72
2022/05/25 09:31:56;;;;;;;26.10;24.70;;;19.60;52.70;;;;;;5080675;28;20509;-72
2022/05/25 09:34:42;;;;;;;25.17;23.77;;;20.00;53.00;;;;;;5080478;28;20477;-75
2022/05/25 09:37:15;;;;;;;26.00;24.13;;;20.50;51.20;;;;;;5074637;28;20804;-72
2022/05/25 09:39:45;;;;;;;27.30;25.90;;;20.70;50.40;;;;;;5072511;28;20466;-71
2022/05/25 09:42:18;;;;;;;25.33;23.93;;;20.70;48.90;;;;;;5078983;28;20503;-74
2022/05/25 09:44:49;;;;;;;26.43;24.80;;;20.90;48.90;;;;;;5074184;28;20551;-72
2022/05/25 09:47:24;;;;;;;26.77;25.17;;;21.10;49.50;;;;;;5081593;28;20464;-71
2022/05/25 09:49:57;;;;;;;25.23;23.63;;;21.30;48.60;;;;;;5074626;28;21065;-72
2022/05/25 09:52:36;;;;;;;26.07;24.57;;;21.10;48.50;;;;;;5078006;28;20449;-71
2022/05/25 09:55:06;;;;;;;25.67;24.00;;;21.10;49.20;;;;;;5084575;28;20613;-72
2022/05/25 09:57:37;;;;;;;28.00;25.83;;;21.20;49.60;;;;;;5073029;28;20513;-73
2022/05/25 10:00:10;;;;;;;26.00;24.50;;;21.50;49.70;;;;;;5073173;28;20537;-74
2022/05/25 10:02:43;;;;;;;27.03;25.50;;;21.60;49.10;;;;;;5094385;28;20872;-75
2022/05/25 10:05:18;;;;;;;25.17;23.87;;;21.60;48.70;;;;;;5083180;28;20560;-74
2022/05/25 10:07:56;;;;;;;25.27;23.87;;;21.70;47.50;;;;;;5077622;28;20489;-72
2022/05/25 10:10:32;;;;;;;24.90;23.50;;;21.40;48.30;;;;;;5080842;28;20966;-71
2022/05/25 10:13:03;;;;;;;25.70;24.20;;;21.30;49.00;;;;;;5090234;28;20478;-78
2022/05/25 10:15:34;;;;;;;27.03;25.53;;;21.40;48.80;;;;;;5090351;28;21158;-72
2022/05/25 10:18:02;;;;;;;25.50;24.20;;;21.60;48.90;;;;;;5088752;28;20553;-73
2022/05/25 10:20:36;;;;;;;27.13;25.53;;;21.50;48.80;;;;;;5080878;28;21028;-73
2022/05/25 10:23:08;;;;;;;26.27;24.77;;;21.50;49.00;;;;;;5096550;28;20549;-71
2022/05/25 10:25:42;;;;;;;26.10;24.60;;;21.80;49.70;;;;;;5097462;27;20480;-72
2022/05/25 10:28:21;;;;;;;26.93;25.43;;;22.10;48.80;;;;;;5079491;28;20459;-71
2022/05/25 10:36:48;;;;;;;26.00;24.47;;;22.50;46.60;;;;;;5084534;28;21092;-77
2022/05/25 10:39:18;;;;;;;25.57;24.10;;;22.40;46.80;;;;;;5078338;28;20894;-73
2022/05/25 10:41:58;;;;;;;25.40;24.00;;;22.20;47.70;;;;;;5086449;28;20831;-71
2022/05/25 10:44:27;;;;;;;24.87;23.47;;;22.30;46.80;;;;;;5094459;28;20537;-71
2022/05/25 10:46:57;;;;;;;25.43;24.03;;;22.30;46.20;;;;;;5075161;28;20557;-76
2022/05/25 10:49:30;;;;;;;25.53;24.03;;;22.10;46.40;;;;;;5080541;28;20840;-75
2022/05/25 10:52:05;;;;;;;25.43;23.97;;;22.00;47.00;;;;;;5072349;28;20493;-71
2022/05/25 10:54:47;;;;;;;25.50;24.20;;;22.20;46.90;;;;;;5081924;28;20554;-70
2022/05/25 10:57:47;;;;;;;25.47;24.10;;;22.20;47.50;;;;;;5088082;28;20461;-75
2022/05/25 11:00:18;;;;;;;25.07;23.77;;;22.00;46.60;;;;;;5065497;28;20563;-72
2022/05/25 11:03:20;;;;;;;27.00;25.50;;;22.00;46.70;;;;;;5083427;28;20571;-72
2022/05/25 11:05:52;;;;;;;24.40;23.10;;;21.90;46.40;;;;;;5079813;28;20481;-74
2022/05/25 11:08:35;;;;;;;24.83;23.43;;;21.80;46.70;;;;;;5083495;28;20466;-71
2022/05/25 11:11:08;;;;;;;25.80;24.30;;;22.00;47.00;;;;;;5081755;28;20887;-74
2022/05/25 11:13:51;;;;;;;26.23;24.83;;;22.40;46.50;;;;;;5077773;28;20466;-76
2022/05/25 11:16:33;;;;;;;24.90;23.50;;;22.70;46.90;;;;;;5078842;28;20484;-75
2022/05/25 11:19:22;;;;;;;25.90;24.50;;;22.90;46.60;;;;;;5078653;28;20454;-77
2022/05/25 11:22:02;;;;;;;25.37;23.77;;;23.00;45.80;;;;;;5083804;28;20460;-74
2022/05/25 11:24:46;;;;;;;24.97;23.57;;;23.30;45.40;;;;;;5072699;28;20546;-76
2022/05/25 11:27:24;;;;;;;24.93;23.63;;;23.50;44.20;;;;;;5076558;28;20538;-74
2022/05/25 11:30:03;;;;;;;25.37;23.87;;;23.30;44.40;;;;;;5084869;28;20535;-73
2022/05/25 11:32:45;;;;;;;26.07;24.67;;;22.10;46.00;;;;;;5093065;28;20541;-73
2022/05/25 11:35:28;;;;;;;25.30;23.73;;;21.50;47.10;;;;;;5073695;28;20477;-72
2022/05/25 11:38:09;;;;;;;24.97;23.50;;;21.40;47.80;;;;;;5073686;28;20458;-73
2022/05/25 11:40:52;;;;;;;26.07;24.57;;;21.50;47.30;;;;;;5085347;28;20516;-73
2022/05/25 11:43:56;;;;;;;26.17;24.43;;;21.50;47.30;;;;;;5078621;28;20481;-73
2022/05/25 11:46:33;;;;;;;25.63;24.20;;;21.80;46.90;;;;;;5081833;28;20481;-74
2022/05/25 11:49:24;;;;;;;26.07;24.67;;;22.00;47.20;;;;;;5087043;28;20469;-74
2022/05/25 11:52:01;;;;;;;25.90;24.40;;;22.20;46.10;;;;;;5072741;28;20476;-74
2022/05/25 11:54:44;;;;;;;26.27;24.77;;;22.40;46.20;;;;;;5083134;28;20482;-77
2022/05/25 11:57:19;;;;;;;26.70;25.00;;;22.60;45.20;;;;;;5085519;28;20550;-74
2022/05/25 12:00:08;;;;;;;25.73;24.20;;;22.90;43.90;;;;;;5088183;28;20965;-78
2022/05/25 12:03:00;;;;;;;26.50;25.10;;;23.00;43.60;;;;;;5082480;28;20554;-78
2022/05/25 12:05:35;;;;;;;27.00;25.40;;;23.10;43.70;;;;;;5077064;28;20480;-78
2022/05/25 12:08:30;;;;;;;26.07;24.50;;;23.30;44.20;;;;;;5078249;28;21051;-77
2022/05/25 12:11:07;;;;;;;25.60;24.20;;;23.60;43.30;;;;;;5069732;28;20945;-77
2022/05/25 12:13:42;;;;;;;26.10;24.60;;;23.10;44.10;;;;;;5077679;28;20531;-78
2022/05/25 12:16:15;;;;;;;25.80;24.30;;;22.50;45.20;;;;;;5073374;28;20470;-78
2022/05/25 12:18:51;;;;;;;25.20;23.80;;;22.20;45.70;;;;;;5071752;28;20512;-77
2022/05/25 12:21:22;;;;;;;25.30;23.80;;;22.30;45.60;;;;;;5070167;28;20465;-77
2022/05/25 12:23:52;;;;;;;26.00;24.60;;;22.30;45.50;;;;;;5078010;28;20583;-75
2022/05/25 12:26:23;;;;;;;27.47;25.53;;;22.10;45.90;;;;;;5084217;28;20486;-74
2022/05/25 12:29:06;;;;;;;26.20;24.70;;;22.10;45.70;;;;;;5077095;28;20458;-73
2022/05/25 12:31:35;;;;;;;26.13;24.73;;;22.40;45.80;;;;;;5074225;28;20610;-74
2022/05/25 12:34:03;;;;;;;28.53;26.87;;;22.60;45.30;;;;;;5074877;28;20476;-73
2022/05/25 12:36:32;;;;;;;25.70;24.40;;;23.00;45.00;;;;;;5087550;28;20479;-74
2022/05/25 12:38:59;;;;;;;27.60;26.00;;;23.30;44.40;;;;;;5075624;28;20486;-74
2022/05/25 12:41:31;;;;;;;26.90;25.23;;;23.60;43.80;;;;;;5072063;28;20459;-74
2022/05/25 12:48:30;;;;;;;26.77;25.17;;;23.80;42.60;;;;;;5081689;28;20455;-76
2022/05/25 12:49:44;;;;;;;25.53;24.17;;;24.10;42.90;;;;;;5082814;28;20467;-75
2022/05/25 12:52:41;;;;;;;27.40;25.90;;;24.40;42.00;;;;;;5080091;28;21024;-75
2022/05/25 12:55:19;;;;;;;27.27;25.60;;;24.90;42.00;;;;;;5086912;28;20488;-72
2022/05/25 12:57:50;;;;;;;25.27;23.83;;;25.20;41.20;;;;;;5084853;28;20575;-75
2022/05/25 13:00:22;;;;;;;25.50;23.87;;;25.30;40.00;;;;;;5078445;28;20460;-74
2022/05/25 13:02:50;;;;;;;29.77;28.13;;;24.40;41.50;;;;;;5075217;28;20485;-75
2022/05/25 13:05:53;;;;;;;27.97;26.47;;;23.90;42.00;;;;;;5082747;28;20564;-73
2022/05/25 13:09:08;;;;;;;25.20;23.90;;;23.30;42.80;;;;;;5077397;28;20479;-75
2022/05/25 13:11:44;;;;;;;26.00;24.60;;;22.80;43.80;;;;;;5080398;28;20519;-73
2022/05/25 13:14:48;;;;;;;25.93;24.33;;;22.50;44.20;;;;;;5076275;28;20474;-73
2022/05/25 13:17:50;;;;;;;27.20;25.70;;;22.60;44.20;;;;;;5072155;28;20450;-74
2022/05/25 13:21:00;;;;;;;25.40;24.00;;;22.90;43.80;;;;;;5069020;28;20776;-73
2022/05/25 13:24:05;;;;;;;27.63;26.03;;;23.10;43.60;;;;;;5080614;28;20454;-75